sensor_id;sensor_type;location;lat;lon;timestamp;temperature;humidity
37324;DHT22;23205;49.986;18.950;2022-12-07T00:01:51;2.40;99.90
37324;DHT22;23205;49.986;18.950;2022-12-07T00:06:52;2.00;99.90
37324;DHT22;23205;49.986;18.950;2022-12-07T00:11:53;2.40;99.90
37324;DHT22;23205;49.986;18.950;2022-12-07T00:16:54;2.50;99.90
37324;DHT22;23205;49.986;18.950;2022-12-07T00:21:55;2.50;99.90
37324;DHT22;23205;49.986;18.950;2022-12-07T00:26:55;2.50;99.90
37324;DHT22;23205;49.986;18.950;2022-12-07T00:31:56;2.60;99.90
37324;DHT22;23205;49.986;18.950;2022-12-07T00:36:57;2.60;99.90
37324;DHT22;23205;49.986;18.950;2022-12-07T00:41:57;2.60;99.90
37324;DHT22;23205;49.986;18.950;2022-12-07T00:46:58;2.60;99.90
37324;DHT22;23205;49.986;18.950;2022-12-07T00:51:59;2.80;99.90
37324;DHT22;23205;49.986;18.950;2022-12-07T00:57:00;2.70;99.90
37324;DHT22;23205;49.986;18.950;2022-12-07T01:02:00;2.80;99.90
37324;DHT22;23205;49.986;18.950;2022-12-07T01:07:01;2.80;99.90
37324;DHT22;23205;49.986;18.950;2022-12-07T01:12:02;3.00;99.90
37324;DHT22;23205;49.986;18.950;2022-12-07T01:17:03;3.00;99.90
37324;DHT22;23205;49.986;18.950;2022-12-07T01:22:04;3.10;99.90
37324;DHT22;23205;49.986;18.950;2022-12-07T01:27:04;2.90;99.90
37324;DHT22;23205;49.986;18.950;2022-12-07T01:32:05;3.10;99.90
37324;DHT22;23205;49.986;18.950;2022-12-07T01:37:06;3.10;99.90
37324;DHT22;23205;49.986;18.950;2022-12-07T01:42:12;3.00;99.90
37324;DHT22;23205;49.986;18.950;2022-12-07T01:47:13;3.20;99.90
37324;DHT22;23205;49.986;18.950;2022-12-07T01:52:31;3.20;99.90
37324;DHT22;23205;49.986;18.950;2022-12-07T01:57:34;3.40;99.90
37324;DHT22;23205;49.986;18.950;2022-12-07T02:08:03;3.20;99.90
37324;DHT22;23205;49.986;18.950;2022-12-07T02:13:07;3.30;99.90
37324;DHT22;23205;49.986;18.950;2022-12-07T02:29:22;3.40;99.90
37324;DHT22;23205;49.986;18.950;2022-12-07T02:34:37;3.20;99.90
37324;DHT22;23205;49.986;18.950;2022-12-07T02:39:48;3.40;99.90
37324;DHT22;23205;49.986;18.950;2022-12-07T02:44:51;3.30;99.90
37324;DHT22;23205;49.986;18.950;2022-12-07T02:49:52;3.40;99.90
37324;DHT22;23205;49.986;18.950;2022-12-07T02:54:53;3.50;99.90
37324;DHT22;23205;49.986;18.950;2022-12-07T03:20:41;3.50;99.90
37324;DHT22;23205;49.986;18.950;2022-12-07T03:25:49;3.60;99.90
37324;DHT22;23205;49.986;18.950;2022-12-07T03:30:57;3.50;99.90
37324;DHT22;23205;49.986;18.950;2022-12-07T03:36:06;3.50;99.90
37324;DHT22;23205;49.986;18.950;2022-12-07T03:41:14;3.50;99.90
37324;DHT22;23205;49.986;18.950;2022-12-07T03:46:34;3.40;99.90
37324;DHT22;23205;49.986;18.950;2022-12-07T03:52:00;3.30;99.90
37324;DHT22;23205;49.986;18.950;2022-12-07T03:57:04;3.40;99.90
37324;DHT22;23205;49.986;18.950;2022-12-07T04:02:07;3.40;99.90
37324;DHT22;23205;49.986;18.950;2022-12-07T04:07:08;3.30;99.90
37324;DHT22;23205;49.986;18.950;2022-12-07T04:12:09;3.20;99.90
37324;DHT22;23205;49.986;18.950;2022-12-07T04:17:09;3.40;99.90
37324;DHT22;23205;49.986;18.950;2022-12-07T04:22:10;3.30;99.90
37324;DHT22;23205;49.986;18.950;2022-12-07T04:27:11;3.50;99.90
37324;DHT22;23205;49.986;18.950;2022-12-07T04:32:12;3.40;99.90
37324;DHT22;23205;49.986;18.950;2022-12-07T04:37:13;3.40;99.90
37324;DHT22;23205;49.986;18.950;2022-12-07T04:42:13;3.50;99.90
37324;DHT22;23205;49.986;18.950;2022-12-07T04:47:14;3.50;99.90
37324;DHT22;23205;49.986;18.950;2022-12-07T04:52:15;3.60;99.90
37324;DHT22;23205;49.986;18.950;2022-12-07T04:57:15;3.40;99.90
37324;DHT22;23205;49.986;18.950;2022-12-07T05:02:16;3.20;99.90
37324;DHT22;23205;49.986;18.950;2022-12-07T05:07:17;3.20;99.90
37324;DHT22;23205;49.986;18.950;2022-12-07T05:12:18;3.20;99.90
37324;DHT22;23205;49.986;18.950;2022-12-07T05:17:19;3.10;99.90
37324;DHT22;23205;49.986;18.950;2022-12-07T05:22:20;3.00;99.90
37324;DHT22;23205;49.986;18.950;2022-12-07T05:27:22;2.90;99.90
37324;DHT22;23205;49.986;18.950;2022-12-07T05:32:22;3.00;99.90
37324;DHT22;23205;49.986;18.950;2022-12-07T05:37:23;2.90;99.90
37324;DHT22;23205;49.986;18.950;2022-12-07T05:42:24;3.00;99.90
37324;DHT22;23205;49.986;18.950;2022-12-07T05:47:25;3.10;99.90
37324;DHT22;23205;49.986;18.950;2022-12-07T05:52:26;2.80;99.90
37324;DHT22;23205;49.986;18.950;2022-12-07T05:57:27;2.90;99.90
37324;DHT22;23205;49.986;18.950;2022-12-07T06:02:28;3.00;99.90
37324;DHT22;23205;49.986;18.950;2022-12-07T06:07:29;2.80;99.90
37324;DHT22;23205;49.986;18.950;2022-12-07T06:12:29;2.90;99.90
37324;DHT22;23205;49.986;18.950;2022-12-07T06:17:38;3.00;99.90
37324;DHT22;23205;49.986;18.950;2022-12-07T06:22:39;2.70;99.90
37324;DHT22;23205;49.986;18.950;2022-12-07T06:27:40;2.70;99.90
37324;DHT22;23205;49.986;18.950;2022-12-07T06:32:41;2.50;99.90
37324;DHT22;23205;49.986;18.950;2022-12-07T06:37:42;2.30;99.90
37324;DHT22;23205;49.986;18.950;2022-12-07T06:42:42;2.50;99.90
37324;DHT22;23205;49.986;18.950;2022-12-07T06:47:43;2.70;99.90
37324;DHT22;23205;49.986;18.950;2022-12-07T06:52:44;2.50;99.90
37324;DHT22;23205;49.986;18.950;2022-12-07T06:57:45;2.50;99.90
37324;DHT22;23205;49.986;18.950;2022-12-07T07:02:46;2.70;99.90
37324;DHT22;23205;49.986;18.950;2022-12-07T07:07:46;2.60;99.90
37324;DHT22;23205;49.986;18.950;2022-12-07T07:12:48;2.60;99.90
37324;DHT22;23205;49.986;18.950;2022-12-07T07:17:49;2.60;99.90
37324;DHT22;23205;49.986;18.950;2022-12-07T07:22:49;2.70;99.90
37324;DHT22;23205;49.986;18.950;2022-12-07T07:27:50;2.60;99.90
37324;DHT22;23205;49.986;18.950;2022-12-07T07:32:51;2.70;99.90
37324;DHT22;23205;49.986;18.950;2022-12-07T07:37:52;2.50;99.90
37324;DHT22;23205;49.986;18.950;2022-12-07T07:42:53;2.60;99.90
37324;DHT22;23205;49.986;18.950;2022-12-07T07:47:54;2.80;99.90
37324;DHT22;23205;49.986;18.950;2022-12-07T07:52:57;2.90;99.90
37324;DHT22;23205;49.986;18.950;2022-12-07T07:57:57;2.90;99.90
37324;DHT22;23205;49.986;18.950;2022-12-07T08:02:58;2.80;99.90
37324;DHT22;23205;49.986;18.950;2022-12-07T08:07:59;3.10;99.90
37324;DHT22;23205;49.986;18.950;2022-12-07T08:18:15;3.10;99.90
37324;DHT22;23205;49.986;18.950;2022-12-07T08:23:15;3.10;99.90
37324;DHT22;23205;49.986;18.950;2022-12-07T08:28:16;3.10;99.90
37324;DHT22;23205;49.986;18.950;2022-12-07T08:33:17;3.20;99.90
37324;DHT22;23205;49.986;18.950;2022-12-07T08:38:18;3.20;99.90
37324;DHT22;23205;49.986;18.950;2022-12-07T08:43:18;3.20;99.90
37324;DHT22;23205;49.986;18.950;2022-12-07T08:48:19;3.10;99.90
37324;DHT22;23205;49.986;18.950;2022-12-07T08:53:23;3.10;99.90
37324;DHT22;23205;49.986;18.950;2022-12-07T08:58:24;3.20;99.90
37324;DHT22;23205;49.986;18.950;2022-12-07T09:03:24;3.30;99.90
37324;DHT22;23205;49.986;18.950;2022-12-07T09:08:31;3.10;99.90
37324;DHT22;23205;49.986;18.950;2022-12-07T09:13:33;3.30;99.90
37324;DHT22;23205;49.986;18.950;2022-12-07T09:18:34;3.30;99.90
37324;DHT22;23205;49.986;18.950;2022-12-07T09:23:35;3.40;99.90
37324;DHT22;23205;49.986;18.950;2022-12-07T09:28:36;3.40;99.90
37324;DHT22;23205;49.986;18.950;2022-12-07T09:33:37;3.30;99.90
37324;DHT22;23205;49.986;18.950;2022-12-07T09:38:38;3.30;99.90
37324;DHT22;23205;49.986;18.950;2022-12-07T09:43:39;3.70;99.90
37324;DHT22;23205;49.986;18.950;2022-12-07T09:48:42;3.50;99.90
37324;DHT22;23205;49.986;18.950;2022-12-07T09:53:44;3.50;99.90
37324;DHT22;23205;49.986;18.950;2022-12-07T09:58:46;3.50;99.90
37324;DHT22;23205;49.986;18.950;2022-12-07T10:03:59;3.70;99.90
37324;DHT22;23205;49.986;18.950;2022-12-07T10:09:01;3.70;99.90
37324;DHT22;23205;49.986;18.950;2022-12-07T10:14:13;3.80;99.90
37324;DHT22;23205;49.986;18.950;2022-12-07T10:19:33;4.10;99.90
37324;DHT22;23205;49.986;18.950;2022-12-07T10:24:34;4.40;99.90
37324;DHT22;23205;49.986;18.950;2022-12-07T10:29:37;4.60;99.90
37324;DHT22;23205;49.986;18.950;2022-12-07T10:34:38;5.00;99.90
37324;DHT22;23205;49.986;18.950;2022-12-07T10:44:44;5.60;99.90
37324;DHT22;23205;49.986;18.950;2022-12-07T10:55:33;7.20;99.90
37324;DHT22;23205;49.986;18.950;2022-12-07T11:00:45;6.40;99.90
37324;DHT22;23205;49.986;18.950;2022-12-07T11:11:30;5.50;99.90
37324;DHT22;23205;49.986;18.950;2022-12-07T11:16:59;5.30;99.90
37324;DHT22;23205;49.986;18.950;2022-12-07T11:22:12;4.80;99.90
37324;DHT22;23205;49.986;18.950;2022-12-07T11:27:32;4.70;99.90
37324;DHT22;23205;49.986;18.950;2022-12-07T11:38:17;4.60;99.90
37324;DHT22;23205;49.986;18.950;2022-12-07T11:43:23;4.50;99.90
37324;DHT22;23205;49.986;18.950;2022-12-07T11:48:33;4.50;99.90
37324;DHT22;23205;49.986;18.950;2022-12-07T11:53:41;4.60;99.90
37324;DHT22;23205;49.986;18.950;2022-12-07T11:58:49;4.90;99.90
37324;DHT22;23205;49.986;18.950;2022-12-07T12:09:18;6.50;99.90
37324;DHT22;23205;49.986;18.950;2022-12-07T12:25:29;13.70;93.40
37324;DHT22;23205;49.986;18.950;2022-12-07T12:30:37;12.30;85.90
37324;DHT22;23205;49.986;18.950;2022-12-07T12:35:39;11.10;97.20
37324;DHT22;23205;49.986;18.950;2022-12-07T12:40:40;10.80;96.00
37324;DHT22;23205;49.986;18.950;2022-12-07T12:45:41;9.80;99.90
37324;DHT22;23205;49.986;18.950;2022-12-07T12:50:42;8.10;99.90
37324;DHT22;23205;49.986;18.950;2022-12-07T12:55:45;7.20;99.90
37324;DHT22;23205;49.986;18.950;2022-12-07T13:11:42;5.50;99.90
37324;DHT22;23205;49.986;18.950;2022-12-07T13:16:44;5.30;99.90
37324;DHT22;23205;49.986;18.950;2022-12-07T13:21:45;5.60;99.90
37324;DHT22;23205;49.986;18.950;2022-12-07T13:26:46;7.80;99.90
37324;DHT22;23205;49.986;18.950;2022-12-07T13:31:50;9.80;99.90
37324;DHT22;23205;49.986;18.950;2022-12-07T13:36:52;10.00;99.90
37324;DHT22;23205;49.986;18.950;2022-12-07T13:41:57;7.90;99.90
37324;DHT22;23205;49.986;18.950;2022-12-07T13:47:23;6.30;99.90
37324;DHT22;23205;49.986;18.950;2022-12-07T13:52:31;5.40;99.90
37324;DHT22;23205;49.986;18.950;2022-12-07T13:57:34;5.10;99.90
37324;DHT22;23205;49.986;18.950;2022-12-07T14:02:35;5.00;99.90
37324;DHT22;23205;49.986;18.950;2022-12-07T14:08:21;4.90;99.90
37324;DHT22;23205;49.986;18.950;2022-12-07T14:13:32;4.80;99.90
37324;DHT22;23205;49.986;18.950;2022-12-07T14:18:40;4.60;99.90
37324;DHT22;23205;49.986;18.950;2022-12-07T14:23:42;4.60;99.90
37324;DHT22;23205;49.986;18.950;2022-12-07T14:28:44;4.50;99.90
37324;DHT22;23205;49.986;18.950;2022-12-07T14:33:45;4.60;99.90
37324;DHT22;23205;49.986;18.950;2022-12-07T14:38:46;4.50;99.90
37324;DHT22;23205;49.986;18.950;2022-12-07T14:43:48;4.30;99.90
37324;DHT22;23205;49.986;18.950;2022-12-07T14:48:49;4.50;99.90
37324;DHT22;23205;49.986;18.950;2022-12-07T14:53:50;4.40;99.90
37324;DHT22;23205;49.986;18.950;2022-12-07T14:58:52;4.40;99.90
37324;DHT22;23205;49.986;18.950;2022-12-07T15:03:53;4.30;99.90
37324;DHT22;23205;49.986;18.950;2022-12-07T15:08:53;4.10;99.90
37324;DHT22;23205;49.986;18.950;2022-12-07T15:13:55;4.10;99.90
37324;DHT22;23205;49.986;18.950;2022-12-07T15:19:19;4.30;99.90
37324;DHT22;23205;49.986;18.950;2022-12-07T15:24:23;4.10;99.90
37324;DHT22;23205;49.986;18.950;2022-12-07T15:29:24;4.10;99.90
37324;DHT22;23205;49.986;18.950;2022-12-07T15:34:26;4.10;99.90
37324;DHT22;23205;49.986;18.950;2022-12-07T15:39:28;4.10;99.90
37324;DHT22;23205;49.986;18.950;2022-12-07T15:44:29;3.90;99.90
37324;DHT22;23205;49.986;18.950;2022-12-07T15:49:49;4.10;99.90
37324;DHT22;23205;49.986;18.950;2022-12-07T15:54:49;3.90;99.90
37324;DHT22;23205;49.986;18.950;2022-12-07T15:59:50;3.90;99.90
37324;DHT22;23205;49.986;18.950;2022-12-07T16:04:52;4.00;99.90
37324;DHT22;23205;49.986;18.950;2022-12-07T16:09:53;3.90;99.90
37324;DHT22;23205;49.986;18.950;2022-12-07T16:14:54;3.90;99.90
37324;DHT22;23205;49.986;18.950;2022-12-07T16:19:54;3.90;99.90
37324;DHT22;23205;49.986;18.950;2022-12-07T16:24:55;3.70;99.90
37324;DHT22;23205;49.986;18.950;2022-12-07T16:29:56;3.70;99.90
37324;DHT22;23205;49.986;18.950;2022-12-07T16:34:57;3.60;99.90
37324;DHT22;23205;49.986;18.950;2022-12-07T16:39:57;3.50;99.90
37324;DHT22;23205;49.986;18.950;2022-12-07T16:44:58;3.50;99.90
37324;DHT22;23205;49.986;18.950;2022-12-07T16:49:59;3.40;99.90
37324;DHT22;23205;49.986;18.950;2022-12-07T16:55:00;3.10;99.90
37324;DHT22;23205;49.986;18.950;2022-12-07T17:00:00;3.20;99.90
37324;DHT22;23205;49.986;18.950;2022-12-07T17:05:01;3.10;99.90
37324;DHT22;23205;49.986;18.950;2022-12-07T17:10:03;3.10;99.90
37324;DHT22;23205;49.986;18.950;2022-12-07T17:15:04;3.00;99.90
37324;DHT22;23205;49.986;18.950;2022-12-07T17:20:18;3.00;99.90
37324;DHT22;23205;49.986;18.950;2022-12-07T17:25:19;3.00;99.90
37324;DHT22;23205;49.986;18.950;2022-12-07T17:30:20;2.90;99.90
37324;DHT22;23205;49.986;18.950;2022-12-07T17:35:20;2.90;99.90
37324;DHT22;23205;49.986;18.950;2022-12-07T17:40:21;2.90;99.90
37324;DHT22;23205;49.986;18.950;2022-12-07T17:45:22;2.80;99.90
37324;DHT22;23205;49.986;18.950;2022-12-07T17:50:23;2.80;99.90
37324;DHT22;23205;49.986;18.950;2022-12-07T17:55:44;2.90;99.90
37324;DHT22;23205;49.986;18.950;2022-12-07T18:00:45;2.70;99.90
37324;DHT22;23205;49.986;18.950;2022-12-07T18:05:45;2.80;99.90
37324;DHT22;23205;49.986;18.950;2022-12-07T18:10:48;3.00;99.90
37324;DHT22;23205;49.986;18.950;2022-12-07T18:15:55;3.00;99.90
37324;DHT22;23205;49.986;18.950;2022-12-07T18:20:57;3.10;99.90
37324;DHT22;23205;49.986;18.950;2022-12-07T18:25:58;3.20;99.90
37324;DHT22;23205;49.986;18.950;2022-12-07T18:30:59;3.30;99.90
37324;DHT22;23205;49.986;18.950;2022-12-07T18:36:00;3.30;99.90
37324;DHT22;23205;49.986;18.950;2022-12-07T18:41:05;3.30;99.90
37324;DHT22;23205;49.986;18.950;2022-12-07T18:46:17;3.30;99.90
37324;DHT22;23205;49.986;18.950;2022-12-07T18:51:19;3.40;99.90
37324;DHT22;23205;49.986;18.950;2022-12-07T18:56:22;3.40;99.90
37324;DHT22;23205;49.986;18.950;2022-12-07T19:01:23;3.40;99.90
37324;DHT22;23205;49.986;18.950;2022-12-07T19:06:24;3.30;99.90
37324;DHT22;23205;49.986;18.950;2022-12-07T19:11:28;3.20;99.90
37324;DHT22;23205;49.986;18.950;2022-12-07T19:16:49;3.20;99.90
37324;DHT22;23205;49.986;18.950;2022-12-07T19:21:50;3.20;99.90
37324;DHT22;23205;49.986;18.950;2022-12-07T19:26:51;3.30;99.90
37324;DHT22;23205;49.986;18.950;2022-12-07T19:31:52;3.30;99.90
37324;DHT22;23205;49.986;18.950;2022-12-07T19:36:53;3.40;99.90
37324;DHT22;23205;49.986;18.950;2022-12-07T19:41:54;3.60;99.90
37324;DHT22;23205;49.986;18.950;2022-12-07T19:46:57;3.50;99.90
37324;DHT22;23205;49.986;18.950;2022-12-07T19:52:02;3.40;99.90
37324;DHT22;23205;49.986;18.950;2022-12-07T19:57:05;3.40;99.90
37324;DHT22;23205;49.986;18.950;2022-12-07T20:02:11;3.50;99.90
37324;DHT22;23205;49.986;18.950;2022-12-07T20:07:13;3.40;99.90
37324;DHT22;23205;49.986;18.950;2022-12-07T20:12:13;3.40;99.90
37324;DHT22;23205;49.986;18.950;2022-12-07T20:17:32;3.40;99.90
37324;DHT22;23205;49.986;18.950;2022-12-07T20:22:33;3.50;99.90
37324;DHT22;23205;49.986;18.950;2022-12-07T20:27:35;3.40;99.90
37324;DHT22;23205;49.986;18.950;2022-12-07T20:32:36;3.30;99.90
37324;DHT22;23205;49.986;18.950;2022-12-07T20:37:37;3.50;99.90
37324;DHT22;23205;49.986;18.950;2022-12-07T20:42:38;3.40;99.90
37324;DHT22;23205;49.986;18.950;2022-12-07T20:47:39;3.40;99.90
37324;DHT22;23205;49.986;18.950;2022-12-07T20:52:40;3.30;99.90
37324;DHT22;23205;49.986;18.950;2022-12-07T20:57:40;3.40;99.90
37324;DHT22;23205;49.986;18.950;2022-12-07T21:02:41;3.30;99.90
37324;DHT22;23205;49.986;18.950;2022-12-07T21:07:42;3.40;99.90
37324;DHT22;23205;49.986;18.950;2022-12-07T21:12:43;3.40;99.90
37324;DHT22;23205;49.986;18.950;2022-12-07T21:17:43;3.30;99.90
37324;DHT22;23205;49.986;18.950;2022-12-07T21:22:44;3.30;99.90
37324;DHT22;23205;49.986;18.950;2022-12-07T21:27:46;3.30;99.90
37324;DHT22;23205;49.986;18.950;2022-12-07T21:32:47;3.30;99.90
37324;DHT22;23205;49.986;18.950;2022-12-07T21:37:48;3.30;99.90
37324;DHT22;23205;49.986;18.950;2022-12-07T21:42:52;3.30;99.90
37324;DHT22;23205;49.986;18.950;2022-12-07T21:47:53;3.30;99.90
37324;DHT22;23205;49.986;18.950;2022-12-07T21:52:54;3.30;99.90
37324;DHT22;23205;49.986;18.950;2022-12-07T21:57:55;3.20;99.90
37324;DHT22;23205;49.986;18.950;2022-12-07T22:02:55;3.30;99.90
37324;DHT22;23205;49.986;18.950;2022-12-07T22:07:56;3.20;99.90
37324;DHT22;23205;49.986;18.950;2022-12-07T22:12:57;3.30;99.90
37324;DHT22;23205;49.986;18.950;2022-12-07T22:17:59;3.20;99.90
37324;DHT22;23205;49.986;18.950;2022-12-07T22:23:00;3.20;99.90
37324;DHT22;23205;49.986;18.950;2022-12-07T22:28:00;3.20;99.90
37324;DHT22;23205;49.986;18.950;2022-12-07T22:33:01;3.20;99.90
37324;DHT22;23205;49.986;18.950;2022-12-07T22:38:02;3.20;99.90
37324;DHT22;23205;49.986;18.950;2022-12-07T22:43:03;3.20;99.90
37324;DHT22;23205;49.986;18.950;2022-12-07T22:48:07;3.20;99.90
37324;DHT22;23205;49.986;18.950;2022-12-07T22:53:08;3.20;99.90
37324;DHT22;23205;49.986;18.950;2022-12-07T22:58:08;3.20;99.90
37324;DHT22;23205;49.986;18.950;2022-12-07T23:03:09;3.20;99.90
37324;DHT22;23205;49.986;18.950;2022-12-07T23:08:11;3.30;99.90
37324;DHT22;23205;49.986;18.950;2022-12-07T23:13:14;3.20;99.90
37324;DHT22;23205;49.986;18.950;2022-12-07T23:18:35;3.30;99.90
37324;DHT22;23205;49.986;18.950;2022-12-07T23:23:36;3.30;99.90
37324;DHT22;23205;49.986;18.950;2022-12-07T23:28:37;3.30;99.90
37324;DHT22;23205;49.986;18.950;2022-12-07T23:33:39;3.40;99.90
37324;DHT22;23205;49.986;18.950;2022-12-07T23:38:41;3.40;99.90
37324;DHT22;23205;49.986;18.950;2022-12-07T23:43:43;3.40;99.90
37324;DHT22;23205;49.986;18.950;2022-12-07T23:48:44;3.40;99.90
37324;DHT22;23205;49.986;18.950;2022-12-07T23:53:48;3.40;99.90
37324;DHT22;23205;49.986;18.950;2022-12-07T23:58:50;3.30;99.90
